sensor_id;sensor_type;location;lat;lon;timestamp;pressure;altitude;pressure_sealevel;temperature;humidity
9935;BME280;5006;41.828;23.478;2022-10-16T00:00:45;90883.44;;;7.61;100.00
9935;BME280;5006;41.828;23.478;2022-10-16T00:01:51;90884.78;;;7.93;100.00
9935;BME280;5006;41.828;23.478;2022-10-16T00:02:55;90880.09;;;7.26;100.00
9935;BME280;5006;41.828;23.478;2022-10-16T00:04:02;90881.38;;;7.32;100.00
9935;BME280;5006;41.828;23.478;2022-10-16T00:05:07;90880.38;;;8.04;100.00
9935;BME280;5006;41.828;23.478;2022-10-16T00:06:14;90884.38;;;7.50;100.00
9935;BME280;5006;41.828;23.478;2022-10-16T00:07:18;90883.72;;;8.20;100.00
9935;BME280;5006;41.828;23.478;2022-10-16T00:08:25;90895.88;;;8.40;100.00
9935;BME280;5006;41.828;23.478;2022-10-16T00:09:29;90887.22;;;8.24;100.00
9935;BME280;5006;41.828;23.478;2022-10-16T00:10:35;90888.38;;;7.40;100.00
9935;BME280;5006;41.828;23.478;2022-10-16T00:11:40;90891.78;;;7.18;100.00
9935;BME280;5006;41.828;23.478;2022-10-16T00:12:45;90887.47;;;7.74;100.00
9935;BME280;5006;41.828;23.478;2022-10-16T00:13:51;90886.97;;;7.46;100.00
9935;BME280;5006;41.828;23.478;2022-10-16T00:15:00;90886.09;;;7.80;100.00
9935;BME280;5006;41.828;23.478;2022-10-16T00:16:06;90891.84;;;7.82;100.00
9935;BME280;5006;41.828;23.478;2022-10-16T00:17:12;90892.56;;;7.79;100.00
9935;BME280;5006;41.828;23.478;2022-10-16T00:18:17;90887.78;;;7.69;100.00
9935;BME280;5006;41.828;23.478;2022-10-16T00:19:23;90896.97;;;7.72;100.00
9935;BME280;5006;41.828;23.478;2022-10-16T00:20:28;90889.91;;;7.83;100.00
9935;BME280;5006;41.828;23.478;2022-10-16T00:21:53;90896.13;;;7.87;100.00
9935;BME280;5006;41.828;23.478;2022-10-16T00:23:18;90893.47;;;7.90;100.00
9935;BME280;5006;41.828;23.478;2022-10-16T00:24:23;90898.78;;;7.26;100.00
9935;BME280;5006;41.828;23.478;2022-10-16T00:25:29;90895.16;;;7.15;100.00
9935;BME280;5006;41.828;23.478;2022-10-16T00:26:37;90895.91;;;7.76;100.00
9935;BME280;5006;41.828;23.478;2022-10-16T00:27:44;90898.13;;;7.93;100.00
9935;BME280;5006;41.828;23.478;2022-10-16T00:28:49;90895.38;;;7.67;100.00
9935;BME280;5006;41.828;23.478;2022-10-16T00:29:56;90889.81;;;7.98;100.00
9935;BME280;5006;41.828;23.478;2022-10-16T00:31:04;90887.63;;;8.04;100.00
9935;BME280;5006;41.828;23.478;2022-10-16T00:32:10;90886.50;;;7.82;100.00
9935;BME280;5006;41.828;23.478;2022-10-16T00:33:16;90883.16;;;8.11;100.00
9935;BME280;5006;41.828;23.478;2022-10-16T00:34:20;90882.34;;;8.07;100.00
9935;BME280;5006;41.828;23.478;2022-10-16T00:35:26;90888.28;;;7.97;100.00
9935;BME280;5006;41.828;23.478;2022-10-16T00:36:30;90889.75;;;7.95;100.00
9935;BME280;5006;41.828;23.478;2022-10-16T00:37:36;90888.63;;;7.73;100.00
9935;BME280;5006;41.828;23.478;2022-10-16T00:38:41;90883.94;;;7.89;100.00
9935;BME280;5006;41.828;23.478;2022-10-16T00:39:47;90879.19;;;8.02;100.00
9935;BME280;5006;41.828;23.478;2022-10-16T00:40:52;90877.25;;;7.99;100.00
9935;BME280;5006;41.828;23.478;2022-10-16T00:41:58;90886.44;;;8.01;100.00
9935;BME280;5006;41.828;23.478;2022-10-16T00:43:12;90889.81;;;7.98;100.00
9935;BME280;5006;41.828;23.478;2022-10-16T00:44:44;90879.13;;;7.98;100.00
9935;BME280;5006;41.828;23.478;2022-10-16T00:45:49;90889.75;;;7.95;100.00
9935;BME280;5006;41.828;23.478;2022-10-16T00:46:55;90890.63;;;8.02;100.00
9935;BME280;5006;41.828;23.478;2022-10-16T00:48:01;90889.44;;;7.77;100.00
9935;BME280;5006;41.828;23.478;2022-10-16T00:49:08;90885.59;;;7.97;100.00
9935;BME280;5006;41.828;23.478;2022-10-16T00:50:20;90892.72;;;8.12;100.00
9935;BME280;5006;41.828;23.478;2022-10-16T00:51:30;90890.47;;;7.92;100.00
9935;BME280;5006;41.828;23.478;2022-10-16T00:52:39;90886.41;;;8.20;100.00
9935;BME280;5006;41.828;23.478;2022-10-16T00:53:46;90888.41;;;8.27;100.00
9935;BME280;5006;41.828;23.478;2022-10-16T00:54:53;90894.63;;;8.12;100.00
9935;BME280;5006;41.828;23.478;2022-10-16T00:55:58;90885.78;;;8.08;100.00
9935;BME280;5006;41.828;23.478;2022-10-16T00:57:06;90888.09;;;7.45;100.00
9935;BME280;5006;41.828;23.478;2022-10-16T00:58:11;90888.38;;;8.04;100.00
9935;BME280;5006;41.828;23.478;2022-10-16T00:59:19;90893.50;;;8.13;100.00
9935;BME280;5006;41.828;23.478;2022-10-16T01:00:26;90892.41;;;8.17;100.00
9935;BME280;5006;41.828;23.478;2022-10-16T01:01:31;90898.06;;;8.12;100.00
9935;BME280;5006;41.828;23.478;2022-10-16T01:02:38;90898.16;;;7.97;100.00
9935;BME280;5006;41.828;23.478;2022-10-16T01:03:44;90901.16;;;7.92;100.00
9935;BME280;5006;41.828;23.478;2022-10-16T01:04:51;90905.44;;;7.96;100.00
9935;BME280;5006;41.828;23.478;2022-10-16T01:06:19;90911.41;;;7.67;100.00
9935;BME280;5006;41.828;23.478;2022-10-16T01:07:36;90915.66;;;7.72;100.00
9935;BME280;5006;41.828;23.478;2022-10-16T01:08:52;90916.03;;;7.70;100.00
9935;BME280;5006;41.828;23.478;2022-10-16T01:10:08;90914.06;;;7.48;100.00
9935;BME280;5006;41.828;23.478;2022-10-16T01:11:22;90917.88;;;7.28;100.00
9935;BME280;5006;41.828;23.478;2022-10-16T01:12:36;90915.63;;;7.49;100.00
9935;BME280;5006;41.828;23.478;2022-10-16T01:13:49;90923.22;;;7.47;100.00
9935;BME280;5006;41.828;23.478;2022-10-16T01:15:01;90922.72;;;7.42;100.00
9935;BME280;5006;41.828;23.478;2022-10-16T01:16:13;90928.13;;;7.26;100.00
9935;BME280;5006;41.828;23.478;2022-10-16T01:17:23;90916.69;;;7.26;100.00
9935;BME280;5006;41.828;23.478;2022-10-16T01:18:35;90928.13;;;7.07;100.00
9935;BME280;5006;41.828;23.478;2022-10-16T01:19:59;90927.44;;;6.26;100.00
9935;BME280;5006;41.828;23.478;2022-10-16T01:21:10;90921.16;;;6.19;100.00
9935;BME280;5006;41.828;23.478;2022-10-16T01:22:15;90926.31;;;6.77;100.00
9935;BME280;5006;41.828;23.478;2022-10-16T01:23:28;90928.97;;;6.77;100.00
9935;BME280;5006;41.828;23.478;2022-10-16T01:24:39;90923.31;;;6.78;100.00
9935;BME280;5006;41.828;23.478;2022-10-16T01:26:20;90918.91;;;6.86;100.00
9935;BME280;5006;41.828;23.478;2022-10-16T01:27:36;90914.34;;;6.86;100.00
9935;BME280;5006;41.828;23.478;2022-10-16T01:28:47;90923.88;;;6.87;100.00
9935;BME280;5006;41.828;23.478;2022-10-16T01:29:57;90920.06;;;6.69;100.00
9935;BME280;5006;41.828;23.478;2022-10-16T01:31:06;90918.09;;;6.66;100.00
9935;BME280;5006;41.828;23.478;2022-10-16T01:32:29;90913.41;;;6.44;100.00
9935;BME280;5006;41.828;23.478;2022-10-16T01:33:40;90916.44;;;6.28;100.00
9935;BME280;5006;41.828;23.478;2022-10-16T01:34:49;90906.97;;;6.45;100.00
9935;BME280;5006;41.828;23.478;2022-10-16T01:36:00;90917.09;;;6.40;100.00
9935;BME280;5006;41.828;23.478;2022-10-16T01:37:09;90921.16;;;6.34;100.00
9935;BME280;5006;41.828;23.478;2022-10-16T01:38:21;90921.66;;;6.39;100.00
9935;BME280;5006;41.828;23.478;2022-10-16T01:39:31;90928.19;;;6.42;100.00
9935;BME280;5006;41.828;23.478;2022-10-16T01:40:42;90928.00;;;6.50;100.00
9935;BME280;5006;41.828;23.478;2022-10-16T01:41:53;90922.88;;;5.96;100.00
9935;BME280;5006;41.828;23.478;2022-10-16T01:43:04;90922.50;;;6.59;100.00
9935;BME280;5006;41.828;23.478;2022-10-16T01:44:11;90936.34;;;6.49;100.00
9935;BME280;5006;41.828;23.478;2022-10-16T01:45:21;90925.59;;;6.61;100.00
9935;BME280;5006;41.828;23.478;2022-10-16T01:46:26;90931.94;;;6.56;100.00
9935;BME280;5006;41.828;23.478;2022-10-16T01:47:35;90932.38;;;6.43;100.00
9935;BME280;5006;41.828;23.478;2022-10-16T01:48:40;90929.41;;;5.83;100.00
9935;BME280;5006;41.828;23.478;2022-10-16T01:49:46;90932.16;;;5.59;100.00
9935;BME280;5006;41.828;23.478;2022-10-16T01:50:59;90931.84;;;5.60;100.00
9935;BME280;5006;41.828;23.478;2022-10-16T01:52:10;90929.66;;;5.50;100.00
9935;BME280;5006;41.828;23.478;2022-10-16T01:53:17;90930.19;;;6.30;100.00
9935;BME280;5006;41.828;23.478;2022-10-16T01:54:23;90925.19;;;6.43;100.00
9935;BME280;5006;41.828;23.478;2022-10-16T01:55:32;90933.50;;;6.42;100.00
9935;BME280;5006;41.828;23.478;2022-10-16T01:56:40;90933.88;;;6.40;100.00
9935;BME280;5006;41.828;23.478;2022-10-16T01:57:47;90937.72;;;6.43;100.00
9935;BME280;5006;41.828;23.478;2022-10-16T01:58:58;90934.19;;;6.54;100.00
9935;BME280;5006;41.828;23.478;2022-10-16T02:00:08;90937.19;;;6.53;100.00
9935;BME280;5006;41.828;23.478;2022-10-16T02:01:19;90941.81;;;6.56;100.00
9935;BME280;5006;41.828;23.478;2022-10-16T02:02:26;90933.72;;;6.68;100.00
9935;BME280;5006;41.828;23.478;2022-10-16T02:03:34;90936.47;;;6.71;100.00
9935;BME280;5006;41.828;23.478;2022-10-16T02:04:43;90934.94;;;6.70;100.00
9935;BME280;5006;41.828;23.478;2022-10-16T02:05:53;90937.69;;;6.74;100.00
9935;BME280;5006;41.828;23.478;2022-10-16T02:06:58;90941.28;;;6.66;100.00
9935;BME280;5006;41.828;23.478;2022-10-16T02:08:04;90924.38;;;6.58;100.00
9935;BME280;5006;41.828;23.478;2022-10-16T02:09:09;90923.81;;;6.84;100.00
9935;BME280;5006;41.828;23.478;2022-10-16T02:10:17;90926.91;;;6.86;100.00
9935;BME280;5006;41.828;23.478;2022-10-16T02:11:22;90926.28;;;6.92;100.00
9935;BME280;5006;41.828;23.478;2022-10-16T02:12:29;90929.44;;;6.98;100.00
9935;BME280;5006;41.828;23.478;2022-10-16T02:13:39;90923.63;;;6.92;100.00
9935;BME280;5006;41.828;23.478;2022-10-16T02:14:50;90925.50;;;6.92;100.00
9935;BME280;5006;41.828;23.478;2022-10-16T02:15:55;90923.19;;;6.90;100.00
9935;BME280;5006;41.828;23.478;2022-10-16T02:17:00;90926.69;;;6.94;100.00
9935;BME280;5006;41.828;23.478;2022-10-16T02:18:05;90917.50;;;6.92;100.00
9935;BME280;5006;41.828;23.478;2022-10-16T02:19:13;90926.94;;;6.89;100.00
9935;BME280;5006;41.828;23.478;2022-10-16T02:20:20;90921.44;;;6.63;100.00
9935;BME280;5006;41.828;23.478;2022-10-16T02:21:35;90925.19;;;6.78;100.00
9935;BME280;5006;41.828;23.478;2022-10-16T02:22:45;90927.28;;;6.69;100.00
9935;BME280;5006;41.828;23.478;2022-10-16T02:23:56;90925.31;;;6.66;100.00
9935;BME280;5006;41.828;23.478;2022-10-16T02:25:06;90929.78;;;6.62;100.00
9935;BME280;5006;41.828;23.478;2022-10-16T02:26:15;90932.47;;;6.46;100.00
9935;BME280;5006;41.828;23.478;2022-10-16T02:27:27;90936.16;;;6.42;100.00
9935;BME280;5006;41.828;23.478;2022-10-16T02:28:39;90927.00;;;6.39;100.00
9935;BME280;5006;41.828;23.478;2022-10-16T02:29:52;90922.34;;;6.36;100.00
9935;BME280;5006;41.828;23.478;2022-10-16T02:31:02;90930.19;;;6.45;100.00
9935;BME280;5006;41.828;23.478;2022-10-16T02:32:09;90932.28;;;6.55;100.00
9935;BME280;5006;41.828;23.478;2022-10-16T02:33:19;90935.03;;;6.58;100.00
9935;BME280;5006;41.828;23.478;2022-10-16T02:34:27;90931.94;;;6.56;100.00
9935;BME280;5006;41.828;23.478;2022-10-16T02:35:33;90937.59;;;6.55;100.00
9935;BME280;5006;41.828;23.478;2022-10-16T02:36:40;90933.59;;;6.45;100.00
9935;BME280;5006;41.828;23.478;2022-10-16T02:37:46;90937.94;;;6.69;100.00
9935;BME280;5006;41.828;23.478;2022-10-16T02:38:53;90939.06;;;6.68;100.00
9935;BME280;5006;41.828;23.478;2022-10-16T02:39:58;90944.31;;;6.64;100.00
9935;BME280;5006;41.828;23.478;2022-10-16T02:41:04;90938.03;;;6.57;100.00
9935;BME280;5006;41.828;23.478;2022-10-16T02:42:10;90943.31;;;6.53;100.00
9935;BME280;5006;41.828;23.478;2022-10-16T02:43:17;90938.03;;;6.57;100.00
9935;BME280;5006;41.828;23.478;2022-10-16T02:44:22;90941.91;;;6.59;100.00
9935;BME280;5006;41.828;23.478;2022-10-16T02:45:29;90932.97;;;6.67;100.00
9935;BME280;5006;41.828;23.478;2022-10-16T02:46:34;90934.81;;;6.82;100.00
9935;BME280;5006;41.828;23.478;2022-10-16T02:47:40;90928.78;;;6.85;100.00
9935;BME280;5006;41.828;23.478;2022-10-16T02:48:44;90937.06;;;6.80;100.00
9935;BME280;5006;41.828;23.478;2022-10-16T02:49:50;90939.34;;;6.82;100.00
9935;BME280;5006;41.828;23.478;2022-10-16T02:50:55;90936.66;;;6.63;100.00
9935;BME280;5006;41.828;23.478;2022-10-16T02:52:02;90943.63;;;6.52;100.00
9935;BME280;5006;41.828;23.478;2022-10-16T02:53:06;90942.31;;;6.61;100.00
9935;BME280;5006;41.828;23.478;2022-10-16T02:54:12;90937.50;;;6.67;100.00
9935;BME280;5006;41.828;23.478;2022-10-16T02:55:17;90944.75;;;6.66;100.00
9935;BME280;5006;41.828;23.478;2022-10-16T02:56:22;90944.47;;;6.56;100.00
9935;BME280;5006;41.828;23.478;2022-10-16T02:57:28;90944.94;;;6.12;100.00
9935;BME280;5006;41.828;23.478;2022-10-16T02:58:34;90945.41;;;6.63;100.00
9935;BME280;5006;41.828;23.478;2022-10-16T02:59:38;90947.13;;;6.71;100.00
9935;BME280;5006;41.828;23.478;2022-10-16T03:00:45;90949.78;;;6.87;100.00
9935;BME280;5006;41.828;23.478;2022-10-16T03:01:50;90951.03;;;6.93;100.00
9935;BME280;5006;41.828;23.478;2022-10-16T03:02:55;90942.94;;;6.89;100.00
9935;BME280;5006;41.828;23.478;2022-10-16T03:04:00;90951.56;;;6.83;100.00
9935;BME280;5006;41.828;23.478;2022-10-16T03:05:06;90944.16;;;6.92;100.00
9935;BME280;5006;41.828;23.478;2022-10-16T03:06:11;90943.03;;;6.93;100.00
9935;BME280;5006;41.828;23.478;2022-10-16T03:07:17;90952.00;;;6.35;100.00
9935;BME280;5006;41.828;23.478;2022-10-16T03:08:22;90950.13;;;6.20;100.00
9935;BME280;5006;41.828;23.478;2022-10-16T03:09:29;90950.19;;;5.93;100.00
9935;BME280;5006;41.828;23.478;2022-10-16T03:10:35;90944.88;;;5.93;100.00
9935;BME280;5006;41.828;23.478;2022-10-16T03:11:40;90949.59;;;5.99;100.00
9935;BME280;5006;41.828;23.478;2022-10-16T03:12:45;90947.97;;;6.10;100.00
9935;BME280;5006;41.828;23.478;2022-10-16T03:13:50;90945.91;;;6.04;100.00
9935;BME280;5006;41.828;23.478;2022-10-16T03:14:56;90946.31;;;5.90;100.00
9935;BME280;5006;41.828;23.478;2022-10-16T03:16:02;90946.72;;;6.69;100.00
9935;BME280;5006;41.828;23.478;2022-10-16T03:17:08;90949.09;;;6.09;100.00
9935;BME280;5006;41.828;23.478;2022-10-16T03:18:13;90951.03;;;5.97;100.00
9935;BME280;5006;41.828;23.478;2022-10-16T03:19:18;90947.69;;;6.00;100.00
9935;BME280;5006;41.828;23.478;2022-10-16T03:20:23;90955.09;;;6.52;100.00
9935;BME280;5006;41.828;23.478;2022-10-16T03:21:29;90952.94;;;6.42;100.00
9935;BME280;5006;41.828;23.478;2022-10-16T03:22:34;90958.09;;;6.35;100.00
9935;BME280;5006;41.828;23.478;2022-10-16T03:23:40;90966.69;;;6.44;100.00
9935;BME280;5006;41.828;23.478;2022-10-16T03:24:45;90957.59;;;5.72;100.00
9935;BME280;5006;41.828;23.478;2022-10-16T03:25:51;90954.91;;;6.30;100.00
9935;BME280;5006;41.828;23.478;2022-10-16T03:26:57;90960.31;;;6.33;100.00
9935;BME280;5006;41.828;23.478;2022-10-16T03:28:02;90956.28;;;6.24;100.00
9935;BME280;5006;41.828;23.478;2022-10-16T03:29:08;90954.56;;;5.58;100.00
9935;BME280;5006;41.828;23.478;2022-10-16T03:30:14;90958.66;;;5.55;100.00
9935;BME280;5006;41.828;23.478;2022-10-16T03:31:22;90961.31;;;5.55;100.00
9935;BME280;5006;41.828;23.478;2022-10-16T03:32:27;90956.78;;;5.56;100.00
9935;BME280;5006;41.828;23.478;2022-10-16T03:33:34;90957.91;;;5.55;100.00
9935;BME280;5006;41.828;23.478;2022-10-16T03:34:38;90961.72;;;6.28;100.00
9935;BME280;5006;41.828;23.478;2022-10-16T03:35:50;90961.03;;;6.46;100.00
9935;BME280;5006;41.828;23.478;2022-10-16T03:36:55;90964.03;;;6.44;100.00
9935;BME280;5006;41.828;23.478;2022-10-16T03:38:01;90958.97;;;6.39;100.00
9935;BME280;5006;41.828;23.478;2022-10-16T03:39:06;90966.25;;;6.42;100.00
9935;BME280;5006;41.828;23.478;2022-10-16T03:40:13;90970.28;;;6.67;100.00
9935;BME280;5006;41.828;23.478;2022-10-16T03:41:19;90967.84;;;6.62;100.00
9935;BME280;5006;41.828;23.478;2022-10-16T03:42:24;90967.41;;;6.76;100.00
9935;BME280;5006;41.828;23.478;2022-10-16T03:43:29;90961.75;;;5.85;100.00
9935;BME280;5006;41.828;23.478;2022-10-16T03:44:34;90970.78;;;6.42;100.00
9935;BME280;5006;41.828;23.478;2022-10-16T03:45:40;90967.94;;;6.66;100.00
9935;BME280;5006;41.828;23.478;2022-10-16T03:46:46;90973.34;;;6.69;100.00
9935;BME280;5006;41.828;23.478;2022-10-16T03:47:52;90968.31;;;6.49;100.00
9935;BME280;5006;41.828;23.478;2022-10-16T03:48:56;90964.44;;;6.62;100.00
9935;BME280;5006;41.828;23.478;2022-10-16T03:50:02;90965.09;;;6.74;100.00
9935;BME280;5006;41.828;23.478;2022-10-16T03:51:08;90966.91;;;6.70;100.00
9935;BME280;5006;41.828;23.478;2022-10-16T03:52:13;90964.34;;;6.58;100.00
9935;BME280;5006;41.828;23.478;2022-10-16T03:53:18;90968.03;;;6.69;100.00
9935;BME280;5006;41.828;23.478;2022-10-16T03:54:24;90965.44;;;6.73;100.00
9935;BME280;5006;41.828;23.478;2022-10-16T03:55:29;90971.81;;;6.53;100.00
9935;BME280;5006;41.828;23.478;2022-10-16T03:56:35;90968.72;;;6.66;100.00
9935;BME280;5006;41.828;23.478;2022-10-16T03:57:39;90969.16;;;6.68;100.00
9935;BME280;5006;41.828;23.478;2022-10-16T03:58:46;90975.78;;;6.59;100.00
9935;BME280;5006;41.828;23.478;2022-10-16T03:59:50;90972.25;;;6.55;100.00
9935;BME280;5006;41.828;23.478;2022-10-16T04:00:56;90960.41;;;6.52;100.00
9935;BME280;5006;41.828;23.478;2022-10-16T04:02:02;90973.03;;;5.94;100.00
9935;BME280;5006;41.828;23.478;2022-10-16T04:03:08;90976.78;;;5.50;100.00
9935;BME280;5006;41.828;23.478;2022-10-16T04:04:13;90970.94;;;5.44;100.00
9935;BME280;5006;41.828;23.478;2022-10-16T04:05:18;90965.31;;;6.20;100.00
9935;BME280;5006;41.828;23.478;2022-10-16T04:06:24;90964.63;;;6.38;100.00
9935;BME280;5006;41.828;23.478;2022-10-16T04:07:29;90964.81;;;6.30;100.00
9935;BME280;5006;41.828;23.478;2022-10-16T04:08:35;90967.56;;;6.33;100.00
9935;BME280;5006;41.828;23.478;2022-10-16T04:09:41;90963.31;;;6.32;100.00
9935;BME280;5006;41.828;23.478;2022-10-16T04:10:46;90962.13;;;6.30;100.00
9935;BME280;5006;41.828;23.478;2022-10-16T04:11:51;90959.59;;;5.75;100.00
9935;BME280;5006;41.828;23.478;2022-10-16T04:12:57;90955.16;;;5.51;100.00
9935;BME280;5006;41.828;23.478;2022-10-16T04:14:02;90955.72;;;5.45;100.00
9935;BME280;5006;41.828;23.478;2022-10-16T04:15:08;90953.59;;;5.23;100.00
9935;BME280;5006;41.828;23.478;2022-10-16T04:16:14;90952.69;;;6.01;100.00
9935;BME280;5006;41.828;23.478;2022-10-16T04:17:21;90956.31;;;5.66;100.00
9935;BME280;5006;41.828;23.478;2022-10-16T04:18:26;90957.06;;;6.25;100.00
9935;BME280;5006;41.828;23.478;2022-10-16T04:19:31;90958.69;;;6.29;100.00
9935;BME280;5006;41.828;23.478;2022-10-16T04:20:36;90952.25;;;6.30;100.00
9935;BME280;5006;41.828;23.478;2022-10-16T04:21:42;90949.94;;;6.29;100.00
9935;BME280;5006;41.828;23.478;2022-10-16T04:22:47;90958.53;;;6.22;100.00
9935;BME280;5006;41.828;23.478;2022-10-16T04:23:52;90957.00;;;6.21;100.00
9935;BME280;5006;41.828;23.478;2022-10-16T04:24:57;90960.50;;;6.40;100.00
9935;BME280;5006;41.828;23.478;2022-10-16T04:26:02;90964.19;;;6.36;100.00
9935;BME280;5006;41.828;23.478;2022-10-16T04:27:08;90960.50;;;6.40;100.00
9935;BME280;5006;41.828;23.478;2022-10-16T04:28:13;90962.38;;;6.55;100.00
9935;BME280;5006;41.828;23.478;2022-10-16T04:29:19;90955.00;;;6.49;100.00
9935;BME280;5006;41.828;23.478;2022-10-16T04:30:24;90962.91;;;6.45;100.00
9935;BME280;5006;41.828;23.478;2022-10-16T04:31:30;90958.16;;;6.54;100.00
9935;BME280;5006;41.828;23.478;2022-10-16T04:32:36;90955.59;;;6.12;100.00
9935;BME280;5006;41.828;23.478;2022-10-16T04:33:42;90958.88;;;6.36;100.00
9935;BME280;5006;41.828;23.478;2022-10-16T04:34:46;90968.22;;;6.45;100.00
9935;BME280;5006;41.828;23.478;2022-10-16T04:35:56;90953.69;;;6.43;100.00
9935;BME280;5006;41.828;23.478;2022-10-16T04:37:01;90947.78;;;6.34;100.00
9935;BME280;5006;41.828;23.478;2022-10-16T04:38:06;90955.00;;;6.33;100.00
9935;BME280;5006;41.828;23.478;2022-10-16T04:39:11;90954.84;;;6.27;100.00
9935;BME280;5006;41.828;23.478;2022-10-16T04:40:17;90962.56;;;6.32;100.00
9935;BME280;5006;41.828;23.478;2022-10-16T04:41:21;90957.41;;;6.38;100.00
9935;BME280;5006;41.828;23.478;2022-10-16T04:42:27;90959.63;;;6.52;100.00
9935;BME280;5006;41.828;23.478;2022-10-16T04:43:32;90959.13;;;6.31;100.00
9935;BME280;5006;41.828;23.478;2022-10-16T04:44:38;90963.66;;;5.57;100.00
9935;BME280;5006;41.828;23.478;2022-10-16T04:45:43;90959.28;;;6.23;100.00
9935;BME280;5006;41.828;23.478;2022-10-16T04:46:50;90959.81;;;6.43;100.00
9935;BME280;5006;41.828;23.478;2022-10-16T04:47:58;90958.19;;;5.65;100.00
9935;BME280;5006;41.828;23.478;2022-10-16T04:49:04;90960.22;;;6.30;100.00
9935;BME280;5006;41.828;23.478;2022-10-16T04:50:09;90964.38;;;6.28;100.00
9935;BME280;5006;41.828;23.478;2022-10-16T04:51:15;90967.56;;;6.18;100.00
9935;BME280;5006;41.828;23.478;2022-10-16T04:52:19;90967.00;;;5.97;100.00
9935;BME280;5006;41.828;23.478;2022-10-16T04:53:26;90965.13;;;5.27;100.00
9935;BME280;5006;41.828;23.478;2022-10-16T04:54:31;90970.34;;;5.23;100.00
9935;BME280;5006;41.828;23.478;2022-10-16T04:55:37;90967.50;;;5.87;100.00
9935;BME280;5006;41.828;23.478;2022-10-16T04:56:42;90965.13;;;5.97;100.00
9935;BME280;5006;41.828;23.478;2022-10-16T04:57:51;90972.78;;;6.30;100.00
9935;BME280;5006;41.828;23.478;2022-10-16T04:58:55;90975.59;;;6.36;100.00
9935;BME280;5006;41.828;23.478;2022-10-16T05:00:02;90973.41;;;6.38;100.00
9935;BME280;5006;41.828;23.478;2022-10-16T05:01:08;90977.16;;;6.37;100.00
9935;BME280;5006;41.828;23.478;2022-10-16T05:02:14;90969.84;;;6.34;100.00
9935;BME280;5006;41.828;23.478;2022-10-16T05:03:20;90970.56;;;6.32;100.00
9935;BME280;5006;41.828;23.478;2022-10-16T05:04:26;90975.47;;;6.30;100.00
9935;BME280;5006;41.828;23.478;2022-10-16T05:05:31;90973.13;;;6.28;100.00
9935;BME280;5006;41.828;23.478;2022-10-16T05:06:38;90968.59;;;6.29;100.00
9935;BME280;5006;41.828;23.478;2022-10-16T05:07:42;90976.22;;;6.30;100.00
9935;BME280;5006;41.828;23.478;2022-10-16T05:08:48;90972.63;;;6.38;100.00
9935;BME280;5006;41.828;23.478;2022-10-16T05:09:54;90969.63;;;6.39;100.00
9935;BME280;5006;41.828;23.478;2022-10-16T05:10:59;90971.06;;;6.37;100.00
9935;BME280;5006;41.828;23.478;2022-10-16T05:12:04;90974.25;;;6.27;100.00
9935;BME280;5006;41.828;23.478;2022-10-16T05:13:10;90969.00;;;6.31;100.00
9935;BME280;5006;41.828;23.478;2022-10-16T05:14:15;90979.47;;;6.24;100.00
9935;BME280;5006;41.828;23.478;2022-10-16T05:15:21;90980.28;;;6.39;100.00
9935;BME280;5006;41.828;23.478;2022-10-16T05:16:29;90986.13;;;6.45;100.00
9935;BME280;5006;41.828;23.478;2022-10-16T05:17:35;90973.22;;;6.47;100.00
9935;BME280;5006;41.828;23.478;2022-10-16T05:18:42;90982.25;;;6.42;100.00
9935;BME280;5006;41.828;23.478;2022-10-16T05:19:47;90979.78;;;5.91;100.00
9935;BME280;5006;41.828;23.478;2022-10-16T05:20:52;90977.53;;;5.50;100.00
9935;BME280;5006;41.828;23.478;2022-10-16T05:21:58;90975.09;;;5.57;100.00
9935;BME280;5006;41.828;23.478;2022-10-16T05:23:03;90975.75;;;5.54;100.00
9935;BME280;5006;41.828;23.478;2022-10-16T05:24:09;90979.03;;;5.63;100.00
9935;BME280;5006;41.828;23.478;2022-10-16T05:25:13;90980.94;;;6.52;100.00
9935;BME280;5006;41.828;23.478;2022-10-16T05:26:19;90981.69;;;6.68;100.00
9935;BME280;5006;41.828;23.478;2022-10-16T05:27:24;90978.97;;;6.18;100.00
9935;BME280;5006;41.828;23.478;2022-10-16T05:28:30;90983.50;;;6.02;100.00
9935;BME280;5006;41.828;23.478;2022-10-16T05:29:36;90989.41;;;5.96;100.00
9935;BME280;5006;41.828;23.478;2022-10-16T05:30:42;90980.25;;;6.24;100.00
9935;BME280;5006;41.828;23.478;2022-10-16T05:31:50;90978.91;;;6.95;100.00
9935;BME280;5006;41.828;23.478;2022-10-16T05:32:56;90981.97;;;6.17;100.00
9935;BME280;5006;41.828;23.478;2022-10-16T05:34:02;90979.28;;;5.86;100.00
9935;BME280;5006;41.828;23.478;2022-10-16T05:35:07;90990.13;;;6.54;100.00
9935;BME280;5006;41.828;23.478;2022-10-16T05:36:12;90988.69;;;6.41;100.00
9935;BME280;5006;41.828;23.478;2022-10-16T05:37:18;90991.28;;;7.22;100.00
9935;BME280;5006;41.828;23.478;2022-10-16T05:38:22;90994.97;;;7.33;100.00
9935;BME280;5006;41.828;23.478;2022-10-16T05:39:28;90997.53;;;7.30;100.00
9935;BME280;5006;41.828;23.478;2022-10-16T05:40:33;90996.72;;;7.26;100.00
9935;BME280;5006;41.828;23.478;2022-10-16T05:41:39;90999.66;;;7.40;100.00
9935;BME280;5006;41.828;23.478;2022-10-16T05:42:44;90994.97;;;7.33;100.00
9935;BME280;5006;41.828;23.478;2022-10-16T05:43:50;91000.19;;;7.11;100.00
9935;BME280;5006;41.828;23.478;2022-10-16T05:44:55;91000.00;;;7.19;100.00
9935;BME280;5006;41.828;23.478;2022-10-16T05:46:03;91006.28;;;7.11;100.00
9935;BME280;5006;41.828;23.478;2022-10-16T05:47:09;91006.56;;;7.41;100.00
9935;BME280;5006;41.828;23.478;2022-10-16T05:48:15;91008.31;;;6.99;100.00
9935;BME280;5006;41.828;23.478;2022-10-16T05:49:22;91009.38;;;6.63;100.00
9935;BME280;5006;41.828;23.478;2022-10-16T05:50:27;91012.28;;;7.24;100.00
9935;BME280;5006;41.828;23.478;2022-10-16T05:51:32;91010.97;;;7.33;100.00
9935;BME280;5006;41.828;23.478;2022-10-16T05:52:37;91020.81;;;7.48;100.00
9935;BME280;5006;41.828;23.478;2022-10-16T05:53:42;91010.91;;;7.49;100.00
9935;BME280;5006;41.828;23.478;2022-10-16T05:54:48;91021.38;;;7.57;100.00
9935;BME280;5006;41.828;23.478;2022-10-16T05:55:52;91015.72;;;7.24;100.00
9935;BME280;5006;41.828;23.478;2022-10-16T05:56:58;91016.81;;;7.04;100.00
9935;BME280;5006;41.828;23.478;2022-10-16T05:58:04;91014.78;;;7.70;100.00
9935;BME280;5006;41.828;23.478;2022-10-16T05:59:08;91013.28;;;7.00;100.00
9935;BME280;5006;41.828;23.478;2022-10-16T06:00:14;91021.81;;;7.59;100.00